sensor_id;sensor_type;location;lat;lon;timestamp;P1;durP1;ratioP1;P2;durP2;ratioP2
72301;SDS011;60235;52.234;5.186;2023-05-17T00:01:25;16.88;;;3.50;;
72301;SDS011;60235;52.234;5.186;2023-05-17T00:03:51;14.63;;;3.70;;
72301;SDS011;60235;52.234;5.186;2023-05-17T00:06:20;13.48;;;2.92;;
72301;SDS011;60235;52.234;5.186;2023-05-17T00:08:46;21.60;;;4.18;;
72301;SDS011;60235;52.234;5.186;2023-05-17T00:11:12;12.65;;;3.58;;
72301;SDS011;60235;52.234;5.186;2023-05-17T00:13:38;17.40;;;4.03;;
72301;SDS011;60235;52.234;5.186;2023-05-17T00:16:05;15.52;;;3.80;;
72301;SDS011;60235;52.234;5.186;2023-05-17T00:18:31;22.88;;;3.97;;
72301;SDS011;60235;52.234;5.186;2023-05-17T00:20:57;17.80;;;4.03;;
72301;SDS011;60235;52.234;5.186;2023-05-17T00:23:23;18.33;;;3.78;;
72301;SDS011;60235;52.234;5.186;2023-05-17T00:25:49;14.25;;;3.60;;
72301;SDS011;60235;52.234;5.186;2023-05-17T00:28:15;12.63;;;3.40;;
72301;SDS011;60235;52.234;5.186;2023-05-17T00:30:41;17.90;;;4.20;;
72301;SDS011;60235;52.234;5.186;2023-05-17T00:33:07;15.82;;;4.22;;
72301;SDS011;60235;52.234;5.186;2023-05-17T00:35:33;15.20;;;3.55;;
72301;SDS011;60235;52.234;5.186;2023-05-17T00:37:59;18.95;;;4.13;;
72301;SDS011;60235;52.234;5.186;2023-05-17T00:40:25;15.60;;;4.40;;
72301;SDS011;60235;52.234;5.186;2023-05-17T00:42:51;15.10;;;3.92;;
72301;SDS011;60235;52.234;5.186;2023-05-17T00:45:17;15.88;;;3.78;;
72301;SDS011;60235;52.234;5.186;2023-05-17T00:47:43;13.10;;;4.00;;
72301;SDS011;60235;52.234;5.186;2023-05-17T00:50:09;17.08;;;4.03;;
72301;SDS011;60235;52.234;5.186;2023-05-17T00:52:36;14.93;;;4.00;;
72301;SDS011;60235;52.234;5.186;2023-05-17T00:55:02;18.33;;;3.95;;
72301;SDS011;60235;52.234;5.186;2023-05-17T00:57:28;17.95;;;3.47;;
72301;SDS011;60235;52.234;5.186;2023-05-17T00:59:56;18.20;;;3.83;;
72301;SDS011;60235;52.234;5.186;2023-05-17T01:02:22;14.93;;;3.58;;
72301;SDS011;60235;52.234;5.186;2023-05-17T01:04:48;16.35;;;4.13;;
72301;SDS011;60235;52.234;5.186;2023-05-17T01:07:15;15.82;;;3.92;;
72301;SDS011;60235;52.234;5.186;2023-05-17T01:09:44;14.45;;;3.38;;
72301;SDS011;60235;52.234;5.186;2023-05-17T01:12:14;17.42;;;3.85;;
72301;SDS011;60235;52.234;5.186;2023-05-17T01:17:16;18.85;;;4.43;;
72301;SDS011;60235;52.234;5.186;2023-05-17T01:19:50;13.18;;;4.13;;
72301;SDS011;60235;52.234;5.186;2023-05-17T01:24:52;17.92;;;3.75;;
72301;SDS011;60235;52.234;5.186;2023-05-17T01:27:20;19.55;;;3.75;;
72301;SDS011;60235;52.234;5.186;2023-05-17T01:29:47;17.58;;;3.55;;
72301;SDS011;60235;52.234;5.186;2023-05-17T01:32:14;15.40;;;3.65;;
72301;SDS011;60235;52.234;5.186;2023-05-17T01:34:40;19.30;;;3.58;;
72301;SDS011;60235;52.234;5.186;2023-05-17T01:37:06;18.17;;;3.47;;
72301;SDS011;60235;52.234;5.186;2023-05-17T01:39:32;16.23;;;3.45;;
72301;SDS011;60235;52.234;5.186;2023-05-17T01:47:08;20.45;;;5.45;;
72301;SDS011;60235;52.234;5.186;2023-05-17T01:49:37;13.63;;;3.70;;
72301;SDS011;60235;52.234;5.186;2023-05-17T01:52:08;19.77;;;4.10;;
72301;SDS011;60235;52.234;5.186;2023-05-17T01:54:38;17.25;;;3.75;;
72301;SDS011;60235;52.234;5.186;2023-05-17T01:59:32;15.73;;;3.53;;
72301;SDS011;60235;52.234;5.186;2023-05-17T02:02:00;11.98;;;3.20;;
72301;SDS011;60235;52.234;5.186;2023-05-17T02:04:30;19.27;;;4.07;;
72301;SDS011;60235;52.234;5.186;2023-05-17T02:06:56;19.10;;;4.03;;
72301;SDS011;60235;52.234;5.186;2023-05-17T02:09:22;15.02;;;4.15;;
72301;SDS011;60235;52.234;5.186;2023-05-17T02:11:48;16.52;;;3.40;;
72301;SDS011;60235;52.234;5.186;2023-05-17T02:14:14;15.88;;;3.33;;
72301;SDS011;60235;52.234;5.186;2023-05-17T02:16:40;21.05;;;3.65;;
72301;SDS011;60235;52.234;5.186;2023-05-17T02:19:06;17.98;;;3.97;;
72301;SDS011;60235;52.234;5.186;2023-05-17T02:21:33;18.85;;;4.13;;
72301;SDS011;60235;52.234;5.186;2023-05-17T02:23:59;14.00;;;3.67;;
72301;SDS011;60235;52.234;5.186;2023-05-17T02:26:25;17.25;;;3.50;;
72301;SDS011;60235;52.234;5.186;2023-05-17T02:28:51;15.35;;;3.88;;
72301;SDS011;60235;52.234;5.186;2023-05-17T02:31:17;13.93;;;3.22;;
72301;SDS011;60235;52.234;5.186;2023-05-17T02:33:43;12.38;;;4.15;;
72301;SDS011;60235;52.234;5.186;2023-05-17T02:36:10;13.68;;;3.70;;
72301;SDS011;60235;52.234;5.186;2023-05-17T02:38:35;19.13;;;3.45;;
72301;SDS011;60235;52.234;5.186;2023-05-17T02:41:01;18.25;;;3.58;;
72301;SDS011;60235;52.234;5.186;2023-05-17T02:43:27;11.50;;;3.70;;
72301;SDS011;60235;52.234;5.186;2023-05-17T02:45:53;15.50;;;4.22;;
72301;SDS011;60235;52.234;5.186;2023-05-17T02:48:19;18.30;;;3.83;;
72301;SDS011;60235;52.234;5.186;2023-05-17T02:50:45;25.17;;;4.38;;
72301;SDS011;60235;52.234;5.186;2023-05-17T02:53:11;15.07;;;3.80;;
72301;SDS011;60235;52.234;5.186;2023-05-17T02:55:37;15.68;;;3.78;;
72301;SDS011;60235;52.234;5.186;2023-05-17T02:58:03;17.65;;;4.13;;
72301;SDS011;60235;52.234;5.186;2023-05-17T03:00:29;15.07;;;3.20;;
72301;SDS011;60235;52.234;5.186;2023-05-17T03:02:56;14.82;;;3.30;;
72301;SDS011;60235;52.234;5.186;2023-05-17T03:05:21;11.45;;;2.67;;
72301;SDS011;60235;52.234;5.186;2023-05-17T03:07:47;15.15;;;2.95;;
72301;SDS011;60235;52.234;5.186;2023-05-17T03:10:13;13.57;;;3.03;;
72301;SDS011;60235;52.234;5.186;2023-05-17T03:12:40;14.30;;;2.83;;
72301;SDS011;60235;52.234;5.186;2023-05-17T03:15:06;12.43;;;2.42;;
72301;SDS011;60235;52.234;5.186;2023-05-17T03:17:32;17.27;;;2.67;;
72301;SDS011;60235;52.234;5.186;2023-05-17T03:19:58;15.70;;;2.50;;
72301;SDS011;60235;52.234;5.186;2023-05-17T03:22:24;15.65;;;2.47;;
72301;SDS011;60235;52.234;5.186;2023-05-17T03:24:50;11.43;;;2.10;;
72301;SDS011;60235;52.234;5.186;2023-05-17T03:27:16;16.02;;;2.20;;
72301;SDS011;60235;52.234;5.186;2023-05-17T03:29:42;14.68;;;1.92;;
72301;SDS011;60235;52.234;5.186;2023-05-17T03:32:08;9.27;;;2.00;;
72301;SDS011;60235;52.234;5.186;2023-05-17T03:34:34;11.63;;;2.20;;
72301;SDS011;60235;52.234;5.186;2023-05-17T03:37:00;14.77;;;2.60;;
72301;SDS011;60235;52.234;5.186;2023-05-17T03:39:27;12.93;;;2.10;;
72301;SDS011;60235;52.234;5.186;2023-05-17T03:41:53;16.55;;;2.80;;
72301;SDS011;60235;52.234;5.186;2023-05-17T03:44:19;14.23;;;2.28;;
72301;SDS011;60235;52.234;5.186;2023-05-17T03:46:45;11.60;;;1.85;;
72301;SDS011;60235;52.234;5.186;2023-05-17T03:49:11;11.25;;;2.00;;
72301;SDS011;60235;52.234;5.186;2023-05-17T03:51:37;12.25;;;2.08;;
72301;SDS011;60235;52.234;5.186;2023-05-17T03:54:03;13.18;;;2.50;;
72301;SDS011;60235;52.234;5.186;2023-05-17T03:56:30;15.85;;;2.42;;
72301;SDS011;60235;52.234;5.186;2023-05-17T03:58:56;13.45;;;2.10;;
72301;SDS011;60235;52.234;5.186;2023-05-17T04:01:22;11.38;;;1.95;;
72301;SDS011;60235;52.234;5.186;2023-05-17T04:03:48;15.15;;;2.15;;
72301;SDS011;60235;52.234;5.186;2023-05-17T04:06:14;16.30;;;2.17;;
72301;SDS011;60235;52.234;5.186;2023-05-17T04:08:40;14.30;;;2.40;;
72301;SDS011;60235;52.234;5.186;2023-05-17T04:11:06;10.43;;;2.17;;
72301;SDS011;60235;52.234;5.186;2023-05-17T04:13:38;14.35;;;2.90;;
72301;SDS011;60235;52.234;5.186;2023-05-17T04:16:04;6.97;;;1.73;;
72301;SDS011;60235;52.234;5.186;2023-05-17T04:18:33;13.38;;;2.28;;
72301;SDS011;60235;52.234;5.186;2023-05-17T04:23:25;14.45;;;2.58;;
72301;SDS011;60235;52.234;5.186;2023-05-17T04:25:51;15.35;;;2.50;;
72301;SDS011;60235;52.234;5.186;2023-05-17T04:28:17;12.52;;;2.00;;
72301;SDS011;60235;52.234;5.186;2023-05-17T04:30:45;13.55;;;1.95;;
72301;SDS011;60235;52.234;5.186;2023-05-17T04:33:12;17.42;;;2.78;;
72301;SDS011;60235;52.234;5.186;2023-05-17T04:35:39;14.25;;;2.03;;
72301;SDS011;60235;52.234;5.186;2023-05-17T04:38:05;12.50;;;1.98;;
72301;SDS011;60235;52.234;5.186;2023-05-17T04:40:31;12.05;;;2.20;;
72301;SDS011;60235;52.234;5.186;2023-05-17T04:42:57;12.20;;;2.00;;
72301;SDS011;60235;52.234;5.186;2023-05-17T04:45:23;15.68;;;2.58;;
72301;SDS011;60235;52.234;5.186;2023-05-17T04:47:50;8.52;;;1.67;;
72301;SDS011;60235;52.234;5.186;2023-05-17T04:50:16;14.23;;;1.92;;
72301;SDS011;60235;52.234;5.186;2023-05-17T04:52:43;11.63;;;1.73;;
72301;SDS011;60235;52.234;5.186;2023-05-17T04:55:09;15.50;;;2.33;;
72301;SDS011;60235;52.234;5.186;2023-05-17T04:57:35;18.15;;;2.85;;
72301;SDS011;60235;52.234;5.186;2023-05-17T05:00:01;15.57;;;2.60;;
72301;SDS011;60235;52.234;5.186;2023-05-17T05:02:31;13.90;;;1.88;;
72301;SDS011;60235;52.234;5.186;2023-05-17T05:04:57;14.40;;;2.67;;
72301;SDS011;60235;52.234;5.186;2023-05-17T05:07:23;13.60;;;2.15;;
72301;SDS011;60235;52.234;5.186;2023-05-17T05:09:49;14.40;;;2.25;;
72301;SDS011;60235;52.234;5.186;2023-05-17T05:12:15;12.13;;;1.80;;
72301;SDS011;60235;52.234;5.186;2023-05-17T05:14:41;15.07;;;1.92;;
72301;SDS011;60235;52.234;5.186;2023-05-17T05:17:07;17.10;;;2.05;;
72301;SDS011;60235;52.234;5.186;2023-05-17T05:19:33;19.13;;;2.47;;
72301;SDS011;60235;52.234;5.186;2023-05-17T05:21:59;14.60;;;1.95;;
72301;SDS011;60235;52.234;5.186;2023-05-17T05:24:25;14.10;;;2.10;;
72301;SDS011;60235;52.234;5.186;2023-05-17T05:26:51;13.98;;;2.30;;
72301;SDS011;60235;52.234;5.186;2023-05-17T05:29:17;15.40;;;2.42;;
72301;SDS011;60235;52.234;5.186;2023-05-17T05:31:43;15.98;;;2.60;;
72301;SDS011;60235;52.234;5.186;2023-05-17T05:34:10;10.30;;;1.80;;
72301;SDS011;60235;52.234;5.186;2023-05-17T05:36:36;15.60;;;2.10;;
72301;SDS011;60235;52.234;5.186;2023-05-17T05:39:02;14.52;;;2.05;;
72301;SDS011;60235;52.234;5.186;2023-05-17T05:41:28;11.00;;;1.73;;
72301;SDS011;60235;52.234;5.186;2023-05-17T05:43:55;13.18;;;1.77;;
72301;SDS011;60235;52.234;5.186;2023-05-17T05:46:21;11.68;;;1.65;;
72301;SDS011;60235;52.234;5.186;2023-05-17T05:48:47;12.82;;;2.40;;
72301;SDS011;60235;52.234;5.186;2023-05-17T05:51:13;12.93;;;2.42;;
72301;SDS011;60235;52.234;5.186;2023-05-17T05:53:39;12.02;;;1.88;;
72301;SDS011;60235;52.234;5.186;2023-05-17T05:56:05;9.85;;;1.77;;
72301;SDS011;60235;52.234;5.186;2023-05-17T05:58:31;13.82;;;2.00;;
72301;SDS011;60235;52.234;5.186;2023-05-17T06:00:57;8.88;;;1.45;;
72301;SDS011;60235;52.234;5.186;2023-05-17T06:03:24;12.52;;;2.00;;
72301;SDS011;60235;52.234;5.186;2023-05-17T06:05:50;8.52;;;1.73;;
72301;SDS011;60235;52.234;5.186;2023-05-17T06:08:16;13.57;;;1.83;;
72301;SDS011;60235;52.234;5.186;2023-05-17T06:10:42;11.95;;;1.67;;
72301;SDS011;60235;52.234;5.186;2023-05-17T06:13:08;10.25;;;1.98;;
72301;SDS011;60235;52.234;5.186;2023-05-17T06:15:35;10.48;;;1.60;;
72301;SDS011;60235;52.234;5.186;2023-05-17T06:18:01;11.70;;;1.55;;
72301;SDS011;60235;52.234;5.186;2023-05-17T06:20:27;11.93;;;1.88;;
72301;SDS011;60235;52.234;5.186;2023-05-17T06:22:53;15.40;;;1.90;;
72301;SDS011;60235;52.234;5.186;2023-05-17T06:25:19;14.18;;;2.75;;
72301;SDS011;60235;52.234;5.186;2023-05-17T06:27:45;9.55;;;1.50;;
72301;SDS011;60235;52.234;5.186;2023-05-17T06:30:11;11.45;;;1.88;;
72301;SDS011;60235;52.234;5.186;2023-05-17T06:32:38;13.60;;;3.42;;
72301;SDS011;60235;52.234;5.186;2023-05-17T06:35:04;8.93;;;1.90;;
72301;SDS011;60235;52.234;5.186;2023-05-17T06:37:30;14.07;;;1.75;;
72301;SDS011;60235;52.234;5.186;2023-05-17T06:40:06;14.57;;;1.77;;
72301;SDS011;60235;52.234;5.186;2023-05-17T06:42:33;13.85;;;1.77;;
72301;SDS011;60235;52.234;5.186;2023-05-17T06:44:59;13.77;;;1.85;;
72301;SDS011;60235;52.234;5.186;2023-05-17T06:47:25;14.05;;;1.65;;
72301;SDS011;60235;52.234;5.186;2023-05-17T06:49:51;11.60;;;1.75;;
72301;SDS011;60235;52.234;5.186;2023-05-17T06:52:17;9.43;;;1.30;;
72301;SDS011;60235;52.234;5.186;2023-05-17T06:54:43;11.02;;;1.73;;
72301;SDS011;60235;52.234;5.186;2023-05-17T06:57:09;7.15;;;1.35;;
72301;SDS011;60235;52.234;5.186;2023-05-17T06:59:35;6.93;;;1.52;;
72301;SDS011;60235;52.234;5.186;2023-05-17T07:02:01;9.82;;;1.30;;
72301;SDS011;60235;52.234;5.186;2023-05-17T07:04:27;10.23;;;1.52;;
72301;SDS011;60235;52.234;5.186;2023-05-17T07:06:54;9.10;;;1.25;;
72301;SDS011;60235;52.234;5.186;2023-05-17T07:09:20;12.25;;;1.58;;
72301;SDS011;60235;52.234;5.186;2023-05-17T07:11:46;9.68;;;1.85;;
72301;SDS011;60235;52.234;5.186;2023-05-17T07:14:12;8.52;;;1.33;;
72301;SDS011;60235;52.234;5.186;2023-05-17T07:16:38;12.77;;;1.67;;
72301;SDS011;60235;52.234;5.186;2023-05-17T07:19:04;9.00;;;1.75;;
72301;SDS011;60235;52.234;5.186;2023-05-17T07:21:31;9.43;;;1.63;;
72301;SDS011;60235;52.234;5.186;2023-05-17T07:23:57;12.55;;;1.48;;
72301;SDS011;60235;52.234;5.186;2023-05-17T07:26:23;8.55;;;1.50;;
72301;SDS011;60235;52.234;5.186;2023-05-17T07:28:49;11.38;;;1.33;;
72301;SDS011;60235;52.234;5.186;2023-05-17T07:31:16;12.23;;;1.42;;
72301;SDS011;60235;52.234;5.186;2023-05-17T07:33:42;6.43;;;1.20;;
72301;SDS011;60235;52.234;5.186;2023-05-17T07:36:08;10.52;;;1.83;;
72301;SDS011;60235;52.234;5.186;2023-05-17T07:38:34;10.13;;;1.85;;
72301;SDS011;60235;52.234;5.186;2023-05-17T07:41:00;8.68;;;1.40;;
72301;SDS011;60235;52.234;5.186;2023-05-17T07:43:27;11.52;;;1.33;;
72301;SDS011;60235;52.234;5.186;2023-05-17T07:45:53;8.57;;;1.20;;
72301;SDS011;60235;52.234;5.186;2023-05-17T07:48:19;8.85;;;1.20;;
72301;SDS011;60235;52.234;5.186;2023-05-17T07:50:45;11.05;;;1.20;;
72301;SDS011;60235;52.234;5.186;2023-05-17T07:53:12;10.73;;;1.40;;
72301;SDS011;60235;52.234;5.186;2023-05-17T07:55:38;7.93;;;1.15;;
72301;SDS011;60235;52.234;5.186;2023-05-17T07:58:04;6.00;;;1.00;;
72301;SDS011;60235;52.234;5.186;2023-05-17T08:00:30;7.03;;;1.20;;
72301;SDS011;60235;52.234;5.186;2023-05-17T08:02:57;9.10;;;1.33;;
72301;SDS011;60235;52.234;5.186;2023-05-17T08:05:23;9.10;;;1.20;;
72301;SDS011;60235;52.234;5.186;2023-05-17T08:07:49;7.70;;;1.77;;
72301;SDS011;60235;52.234;5.186;2023-05-17T08:10:16;10.13;;;2.13;;
72301;SDS011;60235;52.234;5.186;2023-05-17T08:12:42;6.75;;;1.67;;
72301;SDS011;60235;52.234;5.186;2023-05-17T08:15:08;6.70;;;1.00;;
72301;SDS011;60235;52.234;5.186;2023-05-17T08:17:34;6.53;;;1.00;;
72301;SDS011;60235;52.234;5.186;2023-05-17T08:20:00;6.80;;;1.13;;
72301;SDS011;60235;52.234;5.186;2023-05-17T08:22:26;14.63;;;1.35;;
72301;SDS011;60235;52.234;5.186;2023-05-17T08:24:52;13.57;;;1.27;;
72301;SDS011;60235;52.234;5.186;2023-05-17T08:27:18;7.93;;;1.25;;
72301;SDS011;60235;52.234;5.186;2023-05-17T08:29:44;6.68;;;1.08;;
72301;SDS011;60235;52.234;5.186;2023-05-17T08:32:10;9.02;;;1.30;;
72301;SDS011;60235;52.234;5.186;2023-05-17T08:34:36;5.30;;;1.10;;
72301;SDS011;60235;52.234;5.186;2023-05-17T08:37:02;7.25;;;1.20;;
72301;SDS011;60235;52.234;5.186;2023-05-17T08:39:28;7.72;;;1.02;;
72301;SDS011;60235;52.234;5.186;2023-05-17T08:41:55;11.50;;;1.63;;
72301;SDS011;60235;52.234;5.186;2023-05-17T08:44:23;9.00;;;1.40;;
72301;SDS011;60235;52.234;5.186;2023-05-17T08:46:49;6.30;;;1.27;;
72301;SDS011;60235;52.234;5.186;2023-05-17T08:49:18;12.02;;;1.40;;
72301;SDS011;60235;52.234;5.186;2023-05-17T08:51:45;6.97;;;1.02;;
72301;SDS011;60235;52.234;5.186;2023-05-17T08:54:13;5.38;;;1.00;;
72301;SDS011;60235;52.234;5.186;2023-05-17T08:56:40;9.68;;;1.40;;
72301;SDS011;60235;52.234;5.186;2023-05-17T08:59:07;6.25;;;1.13;;
72301;SDS011;60235;52.234;5.186;2023-05-17T09:01:34;5.00;;;0.88;;
72301;SDS011;60235;52.234;5.186;2023-05-17T09:04:02;13.73;;;1.77;;
72301;SDS011;60235;52.234;5.186;2023-05-17T09:06:28;6.85;;;1.00;;
72301;SDS011;60235;52.234;5.186;2023-05-17T09:08:55;7.63;;;1.30;;
72301;SDS011;60235;52.234;5.186;2023-05-17T09:11:25;9.35;;;2.58;;
72301;SDS011;60235;52.234;5.186;2023-05-17T09:13:52;9.57;;;1.00;;
72301;SDS011;60235;52.234;5.186;2023-05-17T09:16:18;7.07;;;1.25;;
72301;SDS011;60235;52.234;5.186;2023-05-17T09:18:52;8.18;;;1.20;;
72301;SDS011;60235;52.234;5.186;2023-05-17T09:21:19;9.63;;;1.30;;
72301;SDS011;60235;52.234;5.186;2023-05-17T09:23:45;6.40;;;0.70;;
72301;SDS011;60235;52.234;5.186;2023-05-17T09:26:11;10.77;;;1.10;;
72301;SDS011;60235;52.234;5.186;2023-05-17T09:28:40;8.65;;;1.25;;
72301;SDS011;60235;52.234;5.186;2023-05-17T09:31:07;6.45;;;1.13;;
72301;SDS011;60235;52.234;5.186;2023-05-17T09:33:33;5.28;;;1.30;;
72301;SDS011;60235;52.234;5.186;2023-05-17T09:36:00;8.45;;;1.05;;
72301;SDS011;60235;52.234;5.186;2023-05-17T09:38:26;5.60;;;1.17;;
72301;SDS011;60235;52.234;5.186;2023-05-17T09:40:52;7.68;;;1.08;;
72301;SDS011;60235;52.234;5.186;2023-05-17T09:43:25;7.32;;;0.85;;
72301;SDS011;60235;52.234;5.186;2023-05-17T09:45:54;10.25;;;1.35;;
72301;SDS011;60235;52.234;5.186;2023-05-17T09:48:21;9.05;;;1.40;;
72301;SDS011;60235;52.234;5.186;2023-05-17T09:50:48;5.57;;;1.10;;
72301;SDS011;60235;52.234;5.186;2023-05-17T09:55:47;4.97;;;1.00;;
72301;SDS011;60235;52.234;5.186;2023-05-17T09:58:13;7.13;;;1.35;;
72301;SDS011;60235;52.234;5.186;2023-05-17T10:00:40;8.15;;;1.20;;
72301;SDS011;60235;52.234;5.186;2023-05-17T10:03:08;9.27;;;1.23;;
72301;SDS011;60235;52.234;5.186;2023-05-17T10:05:35;5.75;;;1.00;;
72301;SDS011;60235;52.234;5.186;2023-05-17T10:08:02;7.90;;;1.00;;
72301;SDS011;60235;52.234;5.186;2023-05-17T10:10:29;8.27;;;0.82;;
72301;SDS011;60235;52.234;5.186;2023-05-17T10:12:56;7.60;;;1.23;;
72301;SDS011;60235;52.234;5.186;2023-05-17T10:15:23;6.05;;;1.25;;
72301;SDS011;60235;52.234;5.186;2023-05-17T10:17:49;4.82;;;1.08;;
72301;SDS011;60235;52.234;5.186;2023-05-17T10:20:16;8.55;;;2.00;;
72301;SDS011;60235;52.234;5.186;2023-05-17T10:22:42;7.72;;;1.58;;
72301;SDS011;60235;52.234;5.186;2023-05-17T10:25:08;6.95;;;1.17;;
72301;SDS011;60235;52.234;5.186;2023-05-17T10:27:35;6.28;;;1.10;;
72301;SDS011;60235;52.234;5.186;2023-05-17T10:30:01;7.30;;;1.00;;
72301;SDS011;60235;52.234;5.186;2023-05-17T10:32:27;10.45;;;1.42;;
72301;SDS011;60235;52.234;5.186;2023-05-17T10:34:53;10.43;;;1.50;;
72301;SDS011;60235;52.234;5.186;2023-05-17T10:37:20;6.82;;;1.35;;
72301;SDS011;60235;52.234;5.186;2023-05-17T10:39:46;4.20;;;0.95;;
72301;SDS011;60235;52.234;5.186;2023-05-17T10:42:12;10.95;;;1.60;;
72301;SDS011;60235;52.234;5.186;2023-05-17T10:44:41;6.75;;;1.02;;
72301;SDS011;60235;52.234;5.186;2023-05-17T10:47:07;7.40;;;1.33;;
72301;SDS011;60235;52.234;5.186;2023-05-17T10:49:33;5.85;;;1.00;;
72301;SDS011;60235;52.234;5.186;2023-05-17T10:52:11;9.02;;;1.90;;
72301;SDS011;60235;52.234;5.186;2023-05-17T10:54:41;10.82;;;1.83;;
72301;SDS011;60235;52.234;5.186;2023-05-17T10:57:07;8.00;;;1.50;;
72301;SDS011;60235;52.234;5.186;2023-05-17T10:59:35;10.45;;;1.60;;
72301;SDS011;60235;52.234;5.186;2023-05-17T11:02:22;7.22;;;1.00;;
72301;SDS011;60235;52.234;5.186;2023-05-17T11:04:48;6.88;;;1.05;;
72301;SDS011;60235;52.234;5.186;2023-05-17T11:15:09;8.75;;;1.50;;
72301;SDS011;60235;52.234;5.186;2023-05-17T11:20:52;12.38;;;2.05;;
72301;SDS011;60235;52.234;5.186;2023-05-17T11:25:29;7.07;;;1.55;;
72301;SDS011;60235;52.234;5.186;2023-05-17T11:27:56;5.25;;;0.85;;
72301;SDS011;60235;52.234;5.186;2023-05-17T11:30:24;11.30;;;1.55;;
72301;SDS011;60235;52.234;5.186;2023-05-17T11:32:56;12.23;;;1.45;;
72301;SDS011;60235;52.234;5.186;2023-05-17T11:35:25;11.48;;;2.15;;
72301;SDS011;60235;52.234;5.186;2023-05-17T11:37:52;9.23;;;1.40;;
72301;SDS011;60235;52.234;5.186;2023-05-17T11:40:24;7.95;;;1.65;;
72301;SDS011;60235;52.234;5.186;2023-05-17T11:43:09;7.15;;;1.30;;
72301;SDS011;60235;52.234;5.186;2023-05-17T11:45:52;7.68;;;1.38;;
72301;SDS011;60235;52.234;5.186;2023-05-17T11:48:19;11.98;;;1.63;;
72301;SDS011;60235;52.234;5.186;2023-05-17T11:50:46;7.75;;;1.27;;
72301;SDS011;60235;52.234;5.186;2023-05-17T11:53:13;10.75;;;1.60;;
72301;SDS011;60235;52.234;5.186;2023-05-17T11:55:40;10.98;;;1.52;;
72301;SDS011;60235;52.234;5.186;2023-05-17T11:58:07;9.73;;;1.63;;
72301;SDS011;60235;52.234;5.186;2023-05-17T12:00:34;8.80;;;1.40;;
72301;SDS011;60235;52.234;5.186;2023-05-17T12:05:46;9.30;;;1.60;;
72301;SDS011;60235;52.234;5.186;2023-05-17T12:08:16;11.10;;;1.60;;
72301;SDS011;60235;52.234;5.186;2023-05-17T12:10:46;8.77;;;1.67;;
72301;SDS011;60235;52.234;5.186;2023-05-17T12:13:13;11.38;;;1.60;;
72301;SDS011;60235;52.234;5.186;2023-05-17T12:15:39;8.57;;;1.33;;
72301;SDS011;60235;52.234;5.186;2023-05-17T12:18:05;9.20;;;1.27;;
72301;SDS011;60235;52.234;5.186;2023-05-17T12:20:31;8.48;;;1.52;;
72301;SDS011;60235;52.234;5.186;2023-05-17T12:22:59;9.98;;;1.60;;
72301;SDS011;60235;52.234;5.186;2023-05-17T12:25:25;10.50;;;1.83;;
72301;SDS011;60235;52.234;5.186;2023-05-17T12:27:53;7.40;;;1.50;;
72301;SDS011;60235;52.234;5.186;2023-05-17T12:30:19;14.23;;;2.50;;
72301;SDS011;60235;52.234;5.186;2023-05-17T12:32:45;13.23;;;1.92;;
72301;SDS011;60235;52.234;5.186;2023-05-17T12:35:11;8.45;;;1.50;;
72301;SDS011;60235;52.234;5.186;2023-05-17T12:37:38;10.65;;;1.42;;
72301;SDS011;60235;52.234;5.186;2023-05-17T12:40:04;10.75;;;2.28;;
72301;SDS011;60235;52.234;5.186;2023-05-17T12:42:31;8.88;;;1.30;;
72301;SDS011;60235;52.234;5.186;2023-05-17T12:45:00;12.98;;;2.10;;
72301;SDS011;60235;52.234;5.186;2023-05-17T12:47:29;8.85;;;1.80;;
72301;SDS011;60235;52.234;5.186;2023-05-17T12:49:55;9.88;;;1.70;;
72301;SDS011;60235;52.234;5.186;2023-05-17T12:52:22;8.13;;;1.60;;
72301;SDS011;60235;52.234;5.186;2023-05-17T12:54:48;9.52;;;1.52;;
72301;SDS011;60235;52.234;5.186;2023-05-17T12:57:14;13.50;;;2.03;;
72301;SDS011;60235;52.234;5.186;2023-05-17T12:59:50;10.82;;;2.22;;
72301;SDS011;60235;52.234;5.186;2023-05-17T13:02:17;8.70;;;1.40;;
72301;SDS011;60235;52.234;5.186;2023-05-17T13:04:44;10.23;;;1.90;;
72301;SDS011;60235;52.234;5.186;2023-05-17T13:07:11;10.48;;;1.98;;
72301;SDS011;60235;52.234;5.186;2023-05-17T13:09:46;8.85;;;1.52;;
72301;SDS011;60235;52.234;5.186;2023-05-17T13:12:17;6.32;;;1.48;;
72301;SDS011;60235;52.234;5.186;2023-05-17T13:14:44;11.38;;;1.50;;
72301;SDS011;60235;52.234;5.186;2023-05-17T13:19:40;8.00;;;1.42;;
72301;SDS011;60235;52.234;5.186;2023-05-17T13:22:06;9.60;;;1.75;;
72301;SDS011;60235;52.234;5.186;2023-05-17T13:24:33;9.45;;;1.42;;
72301;SDS011;60235;52.234;5.186;2023-05-17T13:26:59;6.63;;;1.40;;
72301;SDS011;60235;52.234;5.186;2023-05-17T13:29:25;11.45;;;1.90;;
72301;SDS011;60235;52.234;5.186;2023-05-17T13:31:51;10.40;;;1.48;;
72301;SDS011;60235;52.234;5.186;2023-05-17T13:34:17;9.35;;;1.40;;
72301;SDS011;60235;52.234;5.186;2023-05-17T13:36:46;9.77;;;1.60;;
72301;SDS011;60235;52.234;5.186;2023-05-17T13:39:12;9.50;;;1.88;;
72301;SDS011;60235;52.234;5.186;2023-05-17T13:41:38;7.28;;;1.40;;
72301;SDS011;60235;52.234;5.186;2023-05-17T13:44:05;8.43;;;1.65;;
72301;SDS011;60235;52.234;5.186;2023-05-17T13:46:31;7.75;;;1.80;;
72301;SDS011;60235;52.234;5.186;2023-05-17T13:48:57;9.85;;;1.83;;
72301;SDS011;60235;52.234;5.186;2023-05-17T13:51:23;8.85;;;2.03;;
72301;SDS011;60235;52.234;5.186;2023-05-17T13:53:49;7.03;;;1.50;;
72301;SDS011;60235;52.234;5.186;2023-05-17T13:56:16;11.15;;;1.40;;
72301;SDS011;60235;52.234;5.186;2023-05-17T13:58:42;8.07;;;2.00;;
72301;SDS011;60235;52.234;5.186;2023-05-17T14:01:08;12.73;;;1.92;;
72301;SDS011;60235;52.234;5.186;2023-05-17T14:03:34;8.55;;;1.60;;
72301;SDS011;60235;52.234;5.186;2023-05-17T14:06:02;12.68;;;2.28;;
72301;SDS011;60235;52.234;5.186;2023-05-17T14:08:28;8.48;;;1.30;;
72301;SDS011;60235;52.234;5.186;2023-05-17T14:10:54;8.73;;;2.05;;
72301;SDS011;60235;52.234;5.186;2023-05-17T14:13:20;10.30;;;1.63;;
72301;SDS011;60235;52.234;5.186;2023-05-17T14:15:46;8.80;;;1.77;;
72301;SDS011;60235;52.234;5.186;2023-05-17T14:18:12;9.60;;;1.88;;
72301;SDS011;60235;52.234;5.186;2023-05-17T14:20:39;5.75;;;1.40;;
72301;SDS011;60235;52.234;5.186;2023-05-17T14:23:05;10.07;;;1.80;;
72301;SDS011;60235;52.234;5.186;2023-05-17T14:25:31;10.38;;;1.65;;
72301;SDS011;60235;52.234;5.186;2023-05-17T14:27:57;9.18;;;1.50;;
72301;SDS011;60235;52.234;5.186;2023-05-17T14:30:23;9.05;;;1.60;;
72301;SDS011;60235;52.234;5.186;2023-05-17T14:32:49;9.82;;;1.45;;
72301;SDS011;60235;52.234;5.186;2023-05-17T14:35:15;8.82;;;1.85;;
72301;SDS011;60235;52.234;5.186;2023-05-17T14:37:44;6.53;;;1.60;;
72301;SDS011;60235;52.234;5.186;2023-05-17T14:40:10;10.57;;;1.58;;
72301;SDS011;60235;52.234;5.186;2023-05-17T14:42:37;11.63;;;2.10;;
72301;SDS011;60235;52.234;5.186;2023-05-17T14:45:04;10.32;;;1.55;;
72301;SDS011;60235;52.234;5.186;2023-05-17T14:47:30;11.68;;;1.60;;
72301;SDS011;60235;52.234;5.186;2023-05-17T14:49:57;10.60;;;1.88;;
72301;SDS011;60235;52.234;5.186;2023-05-17T14:52:23;9.88;;;1.35;;
72301;SDS011;60235;52.234;5.186;2023-05-17T14:54:49;10.50;;;1.70;;
72301;SDS011;60235;52.234;5.186;2023-05-17T14:57:15;11.10;;;1.67;;
72301;SDS011;60235;52.234;5.186;2023-05-17T14:59:41;12.80;;;2.00;;
72301;SDS011;60235;52.234;5.186;2023-05-17T15:02:08;11.18;;;1.85;;
72301;SDS011;60235;52.234;5.186;2023-05-17T15:04:34;12.82;;;2.22;;
72301;SDS011;60235;52.234;5.186;2023-05-17T15:07:01;8.25;;;1.45;;
72301;SDS011;60235;52.234;5.186;2023-05-17T15:09:27;10.73;;;1.60;;
72301;SDS011;60235;52.234;5.186;2023-05-17T15:11:55;8.27;;;1.70;;
72301;SDS011;60235;52.234;5.186;2023-05-17T15:14:21;8.00;;;1.77;;